sensor_id;sensor_type;location;lat;lon;timestamp;temperature;humidity
5962;DHT22;3007;50.770;0.250;2023-02-04T00:01:47;9.70;99.90
5962;DHT22;3007;50.770;0.250;2023-02-04T00:04:14;9.70;99.90
5962;DHT22;3007;50.770;0.250;2023-02-04T00:06:42;9.70;99.90
5962;DHT22;3007;50.770;0.250;2023-02-04T00:09:10;9.70;99.90
5962;DHT22;3007;50.770;0.250;2023-02-04T00:11:37;9.70;99.90
5962;DHT22;3007;50.770;0.250;2023-02-04T00:14:04;9.70;99.90
5962;DHT22;3007;50.770;0.250;2023-02-04T00:16:31;9.70;99.90
5962;DHT22;3007;50.770;0.250;2023-02-04T00:18:57;9.80;99.90
5962;DHT22;3007;50.770;0.250;2023-02-04T00:21:25;9.70;99.90
5962;DHT22;3007;50.770;0.250;2023-02-04T00:23:53;9.70;99.90
5962;DHT22;3007;50.770;0.250;2023-02-04T00:26:20;9.70;99.90
5962;DHT22;3007;50.770;0.250;2023-02-04T00:28:47;9.80;99.90
5962;DHT22;3007;50.770;0.250;2023-02-04T00:31:14;9.80;99.90
5962;DHT22;3007;50.770;0.250;2023-02-04T00:33:40;9.80;99.90
5962;DHT22;3007;50.770;0.250;2023-02-04T00:36:08;9.80;99.90
5962;DHT22;3007;50.770;0.250;2023-02-04T00:38:35;9.80;99.90
5962;DHT22;3007;50.770;0.250;2023-02-04T00:41:04;9.80;99.90
5962;DHT22;3007;50.770;0.250;2023-02-04T00:43:31;9.80;99.90
5962;DHT22;3007;50.770;0.250;2023-02-04T00:45:58;9.80;99.90
5962;DHT22;3007;50.770;0.250;2023-02-04T00:48:25;9.70;99.90
5962;DHT22;3007;50.770;0.250;2023-02-04T00:50:52;9.80;99.90
5962;DHT22;3007;50.770;0.250;2023-02-04T00:53:19;9.70;99.90
5962;DHT22;3007;50.770;0.250;2023-02-04T00:55:46;9.70;99.90
5962;DHT22;3007;50.770;0.250;2023-02-04T00:58:14;9.70;99.90
5962;DHT22;3007;50.770;0.250;2023-02-04T01:00:41;9.70;99.90
5962;DHT22;3007;50.770;0.250;2023-02-04T01:03:08;9.70;99.90
5962;DHT22;3007;50.770;0.250;2023-02-04T01:05:35;9.70;99.90
5962;DHT22;3007;50.770;0.250;2023-02-04T01:08:02;9.70;99.90
5962;DHT22;3007;50.770;0.250;2023-02-04T01:10:29;9.70;99.90
5962;DHT22;3007;50.770;0.250;2023-02-04T01:12:56;9.70;99.90
5962;DHT22;3007;50.770;0.250;2023-02-04T01:15:24;9.70;99.90
5962;DHT22;3007;50.770;0.250;2023-02-04T01:17:51;9.60;99.90
5962;DHT22;3007;50.770;0.250;2023-02-04T01:20:18;9.60;99.90
5962;DHT22;3007;50.770;0.250;2023-02-04T01:22:46;9.70;99.90
5962;DHT22;3007;50.770;0.250;2023-02-04T01:25:12;9.60;99.90
5962;DHT22;3007;50.770;0.250;2023-02-04T01:27:39;9.60;99.90
5962;DHT22;3007;50.770;0.250;2023-02-04T01:30:07;9.60;99.90
5962;DHT22;3007;50.770;0.250;2023-02-04T01:32:36;9.60;99.90
5962;DHT22;3007;50.770;0.250;2023-02-04T01:35:03;9.60;99.90
5962;DHT22;3007;50.770;0.250;2023-02-04T01:37:30;9.60;99.90
5962;DHT22;3007;50.770;0.250;2023-02-04T01:39:57;9.60;99.90
5962;DHT22;3007;50.770;0.250;2023-02-04T01:42:24;9.60;99.90
5962;DHT22;3007;50.770;0.250;2023-02-04T01:44:52;9.60;99.90
5962;DHT22;3007;50.770;0.250;2023-02-04T01:47:19;9.60;99.90
5962;DHT22;3007;50.770;0.250;2023-02-04T01:49:51;9.60;99.90
5962;DHT22;3007;50.770;0.250;2023-02-04T01:52:18;9.60;99.90
5962;DHT22;3007;50.770;0.250;2023-02-04T01:54:45;9.60;99.90
5962;DHT22;3007;50.770;0.250;2023-02-04T01:57:14;9.60;99.90
5962;DHT22;3007;50.770;0.250;2023-02-04T01:59:43;9.60;99.90
5962;DHT22;3007;50.770;0.250;2023-02-04T02:02:42;9.60;99.90
5962;DHT22;3007;50.770;0.250;2023-02-04T02:05:15;9.60;99.90
5962;DHT22;3007;50.770;0.250;2023-02-04T02:07:42;9.60;99.90
5962;DHT22;3007;50.770;0.250;2023-02-04T02:10:11;9.60;99.90
5962;DHT22;3007;50.770;0.250;2023-02-04T02:12:38;9.70;99.90
5962;DHT22;3007;50.770;0.250;2023-02-04T02:15:06;9.70;99.90
5962;DHT22;3007;50.770;0.250;2023-02-04T02:17:34;9.70;99.90
5962;DHT22;3007;50.770;0.250;2023-02-04T02:20:01;9.70;99.90
5962;DHT22;3007;50.770;0.250;2023-02-04T02:22:38;9.70;99.90
5962;DHT22;3007;50.770;0.250;2023-02-04T02:25:11;9.70;99.90
5962;DHT22;3007;50.770;0.250;2023-02-04T02:27:38;9.70;99.90
5962;DHT22;3007;50.770;0.250;2023-02-04T02:30:07;9.70;99.90
5962;DHT22;3007;50.770;0.250;2023-02-04T02:32:35;9.70;99.90
5962;DHT22;3007;50.770;0.250;2023-02-04T02:35:04;9.70;99.90
5962;DHT22;3007;50.770;0.250;2023-02-04T02:37:32;9.70;99.90
5962;DHT22;3007;50.770;0.250;2023-02-04T02:39:59;9.70;99.90
5962;DHT22;3007;50.770;0.250;2023-02-04T02:42:27;9.60;99.90
5962;DHT22;3007;50.770;0.250;2023-02-04T02:44:55;9.70;99.90
5962;DHT22;3007;50.770;0.250;2023-02-04T02:47:24;9.70;99.90
5962;DHT22;3007;50.770;0.250;2023-02-04T02:49:52;9.60;99.90
5962;DHT22;3007;50.770;0.250;2023-02-04T02:52:20;9.60;99.90
5962;DHT22;3007;50.770;0.250;2023-02-04T02:54:47;9.60;99.90
5962;DHT22;3007;50.770;0.250;2023-02-04T02:57:17;9.60;99.90
5962;DHT22;3007;50.770;0.250;2023-02-04T02:59:46;9.60;99.90
5962;DHT22;3007;50.770;0.250;2023-02-04T03:02:16;9.60;99.90
5962;DHT22;3007;50.770;0.250;2023-02-04T03:04:47;9.60;99.90
5962;DHT22;3007;50.770;0.250;2023-02-04T03:07:16;9.50;99.90
5962;DHT22;3007;50.770;0.250;2023-02-04T03:09:43;9.60;99.90
5962;DHT22;3007;50.770;0.250;2023-02-04T03:12:11;9.60;99.90
5962;DHT22;3007;50.770;0.250;2023-02-04T03:14:38;9.50;99.90
5962;DHT22;3007;50.770;0.250;2023-02-04T03:17:08;9.50;99.90
5962;DHT22;3007;50.770;0.250;2023-02-04T03:19:35;9.50;99.90
5962;DHT22;3007;50.770;0.250;2023-02-04T03:22:03;9.50;99.90
5962;DHT22;3007;50.770;0.250;2023-02-04T03:24:35;9.50;99.90
5962;DHT22;3007;50.770;0.250;2023-02-04T03:27:02;9.50;99.90
5962;DHT22;3007;50.770;0.250;2023-02-04T03:29:29;9.50;99.90
5962;DHT22;3007;50.770;0.250;2023-02-04T03:31:56;9.50;99.90
5962;DHT22;3007;50.770;0.250;2023-02-04T03:34:25;9.50;99.90
5962;DHT22;3007;50.770;0.250;2023-02-04T03:36:52;9.40;99.90
5962;DHT22;3007;50.770;0.250;2023-02-04T03:39:19;9.40;99.90
5962;DHT22;3007;50.770;0.250;2023-02-04T03:41:46;9.50;99.90
5962;DHT22;3007;50.770;0.250;2023-02-04T03:44:13;9.40;99.90
5962;DHT22;3007;50.770;0.250;2023-02-04T03:46:40;9.50;99.90
5962;DHT22;3007;50.770;0.250;2023-02-04T03:49:07;9.50;99.90
5962;DHT22;3007;50.770;0.250;2023-02-04T03:51:35;9.50;99.90
5962;DHT22;3007;50.770;0.250;2023-02-04T03:54:02;9.50;99.90
5962;DHT22;3007;50.770;0.250;2023-02-04T03:56:29;9.50;99.90
5962;DHT22;3007;50.770;0.250;2023-02-04T03:58:56;9.50;99.90
5962;DHT22;3007;50.770;0.250;2023-02-04T04:01:23;9.50;99.90
5962;DHT22;3007;50.770;0.250;2023-02-04T04:03:50;9.50;99.90
5962;DHT22;3007;50.770;0.250;2023-02-04T04:06:16;9.50;99.90
5962;DHT22;3007;50.770;0.250;2023-02-04T04:08:45;9.50;99.90
5962;DHT22;3007;50.770;0.250;2023-02-04T04:11:12;9.60;99.90
5962;DHT22;3007;50.770;0.250;2023-02-04T04:13:38;9.60;99.90
5962;DHT22;3007;50.770;0.250;2023-02-04T04:16:06;9.50;99.90
5962;DHT22;3007;50.770;0.250;2023-02-04T04:18:33;9.50;99.90
5962;DHT22;3007;50.770;0.250;2023-02-04T04:21:00;9.50;99.90
5962;DHT22;3007;50.770;0.250;2023-02-04T04:23:27;9.60;99.90
5962;DHT22;3007;50.770;0.250;2023-02-04T04:25:55;9.50;99.90
5962;DHT22;3007;50.770;0.250;2023-02-04T04:28:22;9.50;99.90
5962;DHT22;3007;50.770;0.250;2023-02-04T04:30:49;9.50;99.90
5962;DHT22;3007;50.770;0.250;2023-02-04T04:33:16;9.50;99.90
5962;DHT22;3007;50.770;0.250;2023-02-04T04:35:43;9.50;99.90
5962;DHT22;3007;50.770;0.250;2023-02-04T04:38:10;9.50;99.90
5962;DHT22;3007;50.770;0.250;2023-02-04T04:40:37;9.50;99.90
5962;DHT22;3007;50.770;0.250;2023-02-04T04:43:05;9.50;99.90
5962;DHT22;3007;50.770;0.250;2023-02-04T04:45:32;9.50;99.90
5962;DHT22;3007;50.770;0.250;2023-02-04T04:47:59;9.50;99.90
5962;DHT22;3007;50.770;0.250;2023-02-04T04:50:25;9.50;99.90
5962;DHT22;3007;50.770;0.250;2023-02-04T04:52:52;9.50;99.90
5962;DHT22;3007;50.770;0.250;2023-02-04T04:55:19;9.50;99.90
5962;DHT22;3007;50.770;0.250;2023-02-04T04:57:46;9.50;99.90
5962;DHT22;3007;50.770;0.250;2023-02-04T05:00:17;9.50;99.90
5962;DHT22;3007;50.770;0.250;2023-02-04T05:02:44;9.50;99.90
5962;DHT22;3007;50.770;0.250;2023-02-04T05:05:11;9.50;99.90
5962;DHT22;3007;50.770;0.250;2023-02-04T05:07:38;9.50;99.90
5962;DHT22;3007;50.770;0.250;2023-02-04T05:10:06;9.50;99.90
5962;DHT22;3007;50.770;0.250;2023-02-04T05:12:33;9.50;99.90
5962;DHT22;3007;50.770;0.250;2023-02-04T05:15:00;9.50;99.90
5962;DHT22;3007;50.770;0.250;2023-02-04T05:17:28;9.50;99.90
5962;DHT22;3007;50.770;0.250;2023-02-04T05:19:55;9.50;99.90
5962;DHT22;3007;50.770;0.250;2023-02-04T05:22:22;9.50;99.90
5962;DHT22;3007;50.770;0.250;2023-02-04T05:24:49;9.50;99.90
5962;DHT22;3007;50.770;0.250;2023-02-04T05:27:16;9.50;99.90
5962;DHT22;3007;50.770;0.250;2023-02-04T05:29:43;9.50;99.90
5962;DHT22;3007;50.770;0.250;2023-02-04T05:32:09;9.50;99.90
5962;DHT22;3007;50.770;0.250;2023-02-04T05:34:38;9.50;99.90
5962;DHT22;3007;50.770;0.250;2023-02-04T05:37:07;9.50;99.90
5962;DHT22;3007;50.770;0.250;2023-02-04T05:39:33;9.50;99.90
5962;DHT22;3007;50.770;0.250;2023-02-04T05:42:00;9.50;99.90
5962;DHT22;3007;50.770;0.250;2023-02-04T05:44:27;9.40;99.90
5962;DHT22;3007;50.770;0.250;2023-02-04T05:46:54;9.50;99.90
5962;DHT22;3007;50.770;0.250;2023-02-04T05:49:21;9.50;99.90
5962;DHT22;3007;50.770;0.250;2023-02-04T05:51:50;9.50;99.90
5962;DHT22;3007;50.770;0.250;2023-02-04T05:54:17;9.50;99.90
5962;DHT22;3007;50.770;0.250;2023-02-04T05:56:45;9.50;99.90
5962;DHT22;3007;50.770;0.250;2023-02-04T05:59:12;9.50;99.90
5962;DHT22;3007;50.770;0.250;2023-02-04T06:01:39;9.40;99.90
5962;DHT22;3007;50.770;0.250;2023-02-04T06:04:06;9.50;99.90
5962;DHT22;3007;50.770;0.250;2023-02-04T06:06:33;9.40;99.90
5962;DHT22;3007;50.770;0.250;2023-02-04T06:09:02;9.40;99.90
5962;DHT22;3007;50.770;0.250;2023-02-04T06:11:28;9.40;99.90
5962;DHT22;3007;50.770;0.250;2023-02-04T06:13:55;9.40;99.90
5962;DHT22;3007;50.770;0.250;2023-02-04T06:16:22;9.40;99.90
5962;DHT22;3007;50.770;0.250;2023-02-04T06:18:49;9.40;99.90
5962;DHT22;3007;50.770;0.250;2023-02-04T06:21:16;9.40;99.90
5962;DHT22;3007;50.770;0.250;2023-02-04T06:23:43;9.40;99.90
5962;DHT22;3007;50.770;0.250;2023-02-04T06:26:12;9.30;99.90
5962;DHT22;3007;50.770;0.250;2023-02-04T06:28:39;9.30;99.90
5962;DHT22;3007;50.770;0.250;2023-02-04T06:31:05;9.30;99.90
5962;DHT22;3007;50.770;0.250;2023-02-04T06:33:33;9.30;99.90
5962;DHT22;3007;50.770;0.250;2023-02-04T06:36:01;9.30;99.90
5962;DHT22;3007;50.770;0.250;2023-02-04T06:38:28;9.30;99.90
5962;DHT22;3007;50.770;0.250;2023-02-04T06:40:55;9.30;99.90
5962;DHT22;3007;50.770;0.250;2023-02-04T06:43:23;9.30;99.90
5962;DHT22;3007;50.770;0.250;2023-02-04T06:45:52;9.30;99.90
5962;DHT22;3007;50.770;0.250;2023-02-04T06:48:19;9.30;99.90
5962;DHT22;3007;50.770;0.250;2023-02-04T06:50:46;9.30;99.90
5962;DHT22;3007;50.770;0.250;2023-02-04T06:53:13;9.30;99.90
5962;DHT22;3007;50.770;0.250;2023-02-04T06:55:40;9.30;99.90
5962;DHT22;3007;50.770;0.250;2023-02-04T06:58:07;9.30;99.90
5962;DHT22;3007;50.770;0.250;2023-02-04T07:00:35;9.30;99.90
5962;DHT22;3007;50.770;0.250;2023-02-04T07:03:02;9.30;99.90
5962;DHT22;3007;50.770;0.250;2023-02-04T07:05:32;9.30;99.90
5962;DHT22;3007;50.770;0.250;2023-02-04T07:07:59;9.30;99.90
5962;DHT22;3007;50.770;0.250;2023-02-04T07:10:26;9.30;99.90
5962;DHT22;3007;50.770;0.250;2023-02-04T07:12:53;9.30;99.90
5962;DHT22;3007;50.770;0.250;2023-02-04T07:15:20;9.30;99.90
5962;DHT22;3007;50.770;0.250;2023-02-04T07:17:49;9.30;99.90
5962;DHT22;3007;50.770;0.250;2023-02-04T07:20:16;9.20;99.90
5962;DHT22;3007;50.770;0.250;2023-02-04T07:22:43;9.20;99.90
5962;DHT22;3007;50.770;0.250;2023-02-04T07:25:10;9.20;99.90
5962;DHT22;3007;50.770;0.250;2023-02-04T07:27:39;9.20;99.90
5962;DHT22;3007;50.770;0.250;2023-02-04T07:30:08;9.20;99.90
5962;DHT22;3007;50.770;0.250;2023-02-04T07:32:35;9.20;99.90
5962;DHT22;3007;50.770;0.250;2023-02-04T07:35:03;9.20;99.90
5962;DHT22;3007;50.770;0.250;2023-02-04T07:37:30;9.20;99.90
5962;DHT22;3007;50.770;0.250;2023-02-04T07:39:57;9.20;99.90
5962;DHT22;3007;50.770;0.250;2023-02-04T07:42:24;9.20;99.90
5962;DHT22;3007;50.770;0.250;2023-02-04T07:44:51;9.20;99.90
5962;DHT22;3007;50.770;0.250;2023-02-04T07:47:18;9.20;99.90
5962;DHT22;3007;50.770;0.250;2023-02-04T07:49:45;9.20;99.90
5962;DHT22;3007;50.770;0.250;2023-02-04T07:52:13;9.20;99.90
5962;DHT22;3007;50.770;0.250;2023-02-04T07:54:40;9.20;99.90
5962;DHT22;3007;50.770;0.250;2023-02-04T07:57:07;9.20;99.90
5962;DHT22;3007;50.770;0.250;2023-02-04T07:59:34;9.20;99.90
5962;DHT22;3007;50.770;0.250;2023-02-04T08:02:01;9.20;99.90
5962;DHT22;3007;50.770;0.250;2023-02-04T08:04:28;9.30;99.90
5962;DHT22;3007;50.770;0.250;2023-02-04T08:06:55;9.30;99.90
5962;DHT22;3007;50.770;0.250;2023-02-04T08:09:24;9.30;99.90
5962;DHT22;3007;50.770;0.250;2023-02-04T08:11:51;9.30;99.90
5962;DHT22;3007;50.770;0.250;2023-02-04T08:14:21;9.30;99.90
5962;DHT22;3007;50.770;0.250;2023-02-04T08:16:48;9.30;99.90
5962;DHT22;3007;50.770;0.250;2023-02-04T08:19:14;9.30;99.90
5962;DHT22;3007;50.770;0.250;2023-02-04T08:21:45;9.30;99.90
5962;DHT22;3007;50.770;0.250;2023-02-04T08:24:12;9.30;99.90
5962;DHT22;3007;50.770;0.250;2023-02-04T08:26:41;9.40;99.90
5962;DHT22;3007;50.770;0.250;2023-02-04T08:29:08;9.40;99.90
5962;DHT22;3007;50.770;0.250;2023-02-04T08:31:36;9.40;99.90
5962;DHT22;3007;50.770;0.250;2023-02-04T08:34:03;9.40;99.90
5962;DHT22;3007;50.770;0.250;2023-02-04T08:36:31;9.40;99.90
5962;DHT22;3007;50.770;0.250;2023-02-04T08:38:58;9.50;99.90
5962;DHT22;3007;50.770;0.250;2023-02-04T08:41:25;9.50;99.90
5962;DHT22;3007;50.770;0.250;2023-02-04T08:43:53;9.50;99.90
5962;DHT22;3007;50.770;0.250;2023-02-04T08:46:20;9.50;99.90
5962;DHT22;3007;50.770;0.250;2023-02-04T08:48:47;9.60;99.90
5962;DHT22;3007;50.770;0.250;2023-02-04T08:51:14;9.60;99.90
5962;DHT22;3007;50.770;0.250;2023-02-04T08:53:41;9.60;99.90
5962;DHT22;3007;50.770;0.250;2023-02-04T08:56:08;9.60;99.90
5962;DHT22;3007;50.770;0.250;2023-02-04T08:58:40;9.60;99.90
5962;DHT22;3007;50.770;0.250;2023-02-04T09:01:08;9.60;99.90
5962;DHT22;3007;50.770;0.250;2023-02-04T09:03:36;9.70;99.90
5962;DHT22;3007;50.770;0.250;2023-02-04T09:06:03;9.80;99.90
5962;DHT22;3007;50.770;0.250;2023-02-04T09:08:30;9.80;99.90
5962;DHT22;3007;50.770;0.250;2023-02-04T09:10:57;9.80;99.90
5962;DHT22;3007;50.770;0.250;2023-02-04T09:13:24;9.80;99.90
5962;DHT22;3007;50.770;0.250;2023-02-04T09:15:51;9.90;99.90
5962;DHT22;3007;50.770;0.250;2023-02-04T09:18:20;9.90;99.90
5962;DHT22;3007;50.770;0.250;2023-02-04T09:20:49;10.00;99.90
5962;DHT22;3007;50.770;0.250;2023-02-04T09:23:16;10.00;99.90
5962;DHT22;3007;50.770;0.250;2023-02-04T09:25:44;10.00;99.90
5962;DHT22;3007;50.770;0.250;2023-02-04T09:28:12;10.10;99.90
5962;DHT22;3007;50.770;0.250;2023-02-04T09:30:42;10.10;99.90
5962;DHT22;3007;50.770;0.250;2023-02-04T09:33:11;10.10;99.90
5962;DHT22;3007;50.770;0.250;2023-02-04T09:35:40;10.20;99.90
5962;DHT22;3007;50.770;0.250;2023-02-04T09:38:07;10.20;99.90
5962;DHT22;3007;50.770;0.250;2023-02-04T09:40:39;10.20;99.90
5962;DHT22;3007;50.770;0.250;2023-02-04T09:43:10;10.20;99.90
5962;DHT22;3007;50.770;0.250;2023-02-04T09:45:38;10.20;99.90
5962;DHT22;3007;50.770;0.250;2023-02-04T09:48:05;10.20;99.90
5962;DHT22;3007;50.770;0.250;2023-02-04T09:50:32;10.30;99.90
5962;DHT22;3007;50.770;0.250;2023-02-04T09:53:03;10.30;99.90
5962;DHT22;3007;50.770;0.250;2023-02-04T09:55:33;10.30;99.90
5962;DHT22;3007;50.770;0.250;2023-02-04T09:58:01;10.30;99.90
5962;DHT22;3007;50.770;0.250;2023-02-04T10:00:29;10.30;99.90
5962;DHT22;3007;50.770;0.250;2023-02-04T10:02:58;10.30;99.90
5962;DHT22;3007;50.770;0.250;2023-02-04T10:05:29;10.30;99.90
5962;DHT22;3007;50.770;0.250;2023-02-04T10:07:56;10.30;99.90
5962;DHT22;3007;50.770;0.250;2023-02-04T10:10:26;10.40;99.90
5962;DHT22;3007;50.770;0.250;2023-02-04T10:12:57;10.40;99.90
5962;DHT22;3007;50.770;0.250;2023-02-04T10:15:25;10.40;99.90
5962;DHT22;3007;50.770;0.250;2023-02-04T10:17:58;10.40;99.90
5962;DHT22;3007;50.770;0.250;2023-02-04T10:20:27;10.50;99.90
5962;DHT22;3007;50.770;0.250;2023-02-04T10:22:54;10.50;99.90
5962;DHT22;3007;50.770;0.250;2023-02-04T10:25:25;10.60;99.90
5962;DHT22;3007;50.770;0.250;2023-02-04T10:27:53;10.60;99.90
5962;DHT22;3007;50.770;0.250;2023-02-04T10:30:22;10.60;99.90
5962;DHT22;3007;50.770;0.250;2023-02-04T10:32:50;10.70;99.90
5962;DHT22;3007;50.770;0.250;2023-02-04T10:35:19;10.70;99.90
5962;DHT22;3007;50.770;0.250;2023-02-04T10:37:47;10.70;99.90
5962;DHT22;3007;50.770;0.250;2023-02-04T10:40:30;10.70;99.90
5962;DHT22;3007;50.770;0.250;2023-02-04T10:42:58;10.80;99.90
5962;DHT22;3007;50.770;0.250;2023-02-04T10:45:26;10.80;99.90
5962;DHT22;3007;50.770;0.250;2023-02-04T10:47:55;10.80;99.90
5962;DHT22;3007;50.770;0.250;2023-02-04T10:50:23;10.80;99.90
5962;DHT22;3007;50.770;0.250;2023-02-04T10:52:52;10.80;99.90
5962;DHT22;3007;50.770;0.250;2023-02-04T10:55:42;10.80;99.90
5962;DHT22;3007;50.770;0.250;2023-02-04T10:58:11;10.90;99.90
5962;DHT22;3007;50.770;0.250;2023-02-04T11:00:40;10.80;99.90
5962;DHT22;3007;50.770;0.250;2023-02-04T11:03:11;10.90;99.90
5962;DHT22;3007;50.770;0.250;2023-02-04T11:05:40;10.90;99.90
5962;DHT22;3007;50.770;0.250;2023-02-04T11:08:19;10.90;99.90
5962;DHT22;3007;50.770;0.250;2023-02-04T11:10:54;10.90;99.90
5962;DHT22;3007;50.770;0.250;2023-02-04T11:13:23;10.90;99.90
5962;DHT22;3007;50.770;0.250;2023-02-04T11:16:05;10.90;99.90
5962;DHT22;3007;50.770;0.250;2023-02-04T11:18:43;11.00;99.90
5962;DHT22;3007;50.770;0.250;2023-02-04T11:21:14;11.00;99.90
5962;DHT22;3007;50.770;0.250;2023-02-04T11:23:47;11.10;99.90
5962;DHT22;3007;50.770;0.250;2023-02-04T11:26:17;11.10;99.90
5962;DHT22;3007;50.770;0.250;2023-02-04T11:28:55;11.10;99.90
5962;DHT22;3007;50.770;0.250;2023-02-04T11:31:56;11.10;99.90
5962;DHT22;3007;50.770;0.250;2023-02-04T11:34:35;11.20;99.90
5962;DHT22;3007;50.770;0.250;2023-02-04T11:37:27;11.20;99.90
5962;DHT22;3007;50.770;0.250;2023-02-04T11:40:00;11.20;99.90
5962;DHT22;3007;50.770;0.250;2023-02-04T11:42:31;11.20;99.90
5962;DHT22;3007;50.770;0.250;2023-02-04T11:45:12;11.10;99.90
5962;DHT22;3007;50.770;0.250;2023-02-04T11:47:39;11.10;99.90
5962;DHT22;3007;50.770;0.250;2023-02-04T11:50:13;11.20;99.90
5962;DHT22;3007;50.770;0.250;2023-02-04T11:52:40;11.20;99.90
5962;DHT22;3007;50.770;0.250;2023-02-04T11:55:09;11.10;99.90
5962;DHT22;3007;50.770;0.250;2023-02-04T11:57:39;11.10;99.90
5962;DHT22;3007;50.770;0.250;2023-02-04T12:00:12;11.10;99.90
5962;DHT22;3007;50.770;0.250;2023-02-04T12:02:41;11.10;99.90
5962;DHT22;3007;50.770;0.250;2023-02-04T12:05:11;11.10;99.90
5962;DHT22;3007;50.770;0.250;2023-02-04T12:07:38;11.10;99.90
5962;DHT22;3007;50.770;0.250;2023-02-04T12:10:14;11.20;99.90
5962;DHT22;3007;50.770;0.250;2023-02-04T12:12:50;11.20;99.90
5962;DHT22;3007;50.770;0.250;2023-02-04T12:15:21;11.20;99.90
5962;DHT22;3007;50.770;0.250;2023-02-04T12:18:00;11.20;99.90
5962;DHT22;3007;50.770;0.250;2023-02-04T12:20:27;11.20;99.90
5962;DHT22;3007;50.770;0.250;2023-02-04T12:22:54;11.20;99.90
5962;DHT22;3007;50.770;0.250;2023-02-04T12:25:21;11.30;99.90
5962;DHT22;3007;50.770;0.250;2023-02-04T12:27:49;11.30;99.90
5962;DHT22;3007;50.770;0.250;2023-02-04T12:30:19;11.30;99.90
5962;DHT22;3007;50.770;0.250;2023-02-04T12:32:46;11.30;99.90
5962;DHT22;3007;50.770;0.250;2023-02-04T12:35:13;11.30;99.90
5962;DHT22;3007;50.770;0.250;2023-02-04T12:37:40;11.30;99.90
5962;DHT22;3007;50.770;0.250;2023-02-04T12:40:08;11.30;99.90
5962;DHT22;3007;50.770;0.250;2023-02-04T12:42:35;11.30;99.90
5962;DHT22;3007;50.770;0.250;2023-02-04T12:45:04;11.30;99.90
5962;DHT22;3007;50.770;0.250;2023-02-04T12:47:31;11.30;99.90
5962;DHT22;3007;50.770;0.250;2023-02-04T12:49:58;11.30;99.90
5962;DHT22;3007;50.770;0.250;2023-02-04T12:52:25;11.30;99.90
5962;DHT22;3007;50.770;0.250;2023-02-04T12:54:52;11.30;99.90
5962;DHT22;3007;50.770;0.250;2023-02-04T12:57:21;11.30;99.90
5962;DHT22;3007;50.770;0.250;2023-02-04T12:59:48;11.30;99.90
5962;DHT22;3007;50.770;0.250;2023-02-04T13:02:16;11.40;99.90
5962;DHT22;3007;50.770;0.250;2023-02-04T13:04:43;11.40;99.90
5962;DHT22;3007;50.770;0.250;2023-02-04T13:07:10;11.40;99.90
5962;DHT22;3007;50.770;0.250;2023-02-04T13:09:37;11.40;99.90
5962;DHT22;3007;50.770;0.250;2023-02-04T13:12:04;11.40;99.90
5962;DHT22;3007;50.770;0.250;2023-02-04T13:14:31;11.40;99.90
5962;DHT22;3007;50.770;0.250;2023-02-04T13:16:58;11.50;99.90
5962;DHT22;3007;50.770;0.250;2023-02-04T13:19:26;11.50;99.90
5962;DHT22;3007;50.770;0.250;2023-02-04T13:21:53;11.50;99.90
5962;DHT22;3007;50.770;0.250;2023-02-04T13:24:20;11.50;99.90
5962;DHT22;3007;50.770;0.250;2023-02-04T13:26:47;11.50;99.90
5962;DHT22;3007;50.770;0.250;2023-02-04T13:29:14;11.50;99.90
5962;DHT22;3007;50.770;0.250;2023-02-04T13:31:41;11.50;99.90
5962;DHT22;3007;50.770;0.250;2023-02-04T13:34:08;11.40;99.90
5962;DHT22;3007;50.770;0.250;2023-02-04T13:36:36;11.40;99.90
5962;DHT22;3007;50.770;0.250;2023-02-04T13:39:03;11.30;99.90
5962;DHT22;3007;50.770;0.250;2023-02-04T13:41:30;11.20;99.90
5962;DHT22;3007;50.770;0.250;2023-02-04T13:43:57;11.20;99.90
5962;DHT22;3007;50.770;0.250;2023-02-04T13:46:24;11.00;99.90
5962;DHT22;3007;50.770;0.250;2023-02-04T13:48:51;11.00;99.90
5962;DHT22;3007;50.770;0.250;2023-02-04T13:51:18;10.90;99.90
5962;DHT22;3007;50.770;0.250;2023-02-04T13:53:46;10.90;99.90
5962;DHT22;3007;50.770;0.250;2023-02-04T13:56:13;10.80;99.90
5962;DHT22;3007;50.770;0.250;2023-02-04T13:58:40;10.80;99.90
5962;DHT22;3007;50.770;0.250;2023-02-04T14:01:08;10.80;99.90
5962;DHT22;3007;50.770;0.250;2023-02-04T14:03:36;10.80;99.90
5962;DHT22;3007;50.770;0.250;2023-02-04T14:06:03;10.80;99.90
5962;DHT22;3007;50.770;0.250;2023-02-04T14:08:31;10.70;99.90
5962;DHT22;3007;50.770;0.250;2023-02-04T14:10:59;10.80;99.90
5962;DHT22;3007;50.770;0.250;2023-02-04T14:13:26;10.70;99.90
5962;DHT22;3007;50.770;0.250;2023-02-04T14:15:53;10.80;99.90
5962;DHT22;3007;50.770;0.250;2023-02-04T14:18:20;10.80;99.90
5962;DHT22;3007;50.770;0.250;2023-02-04T14:20:47;10.80;99.90
5962;DHT22;3007;50.770;0.250;2023-02-04T14:23:14;10.80;99.90
5962;DHT22;3007;50.770;0.250;2023-02-04T14:25:41;10.80;99.90
5962;DHT22;3007;50.770;0.250;2023-02-04T14:28:09;10.80;99.90
5962;DHT22;3007;50.770;0.250;2023-02-04T14:30:37;10.80;99.90
5962;DHT22;3007;50.770;0.250;2023-02-04T14:33:04;10.80;99.90
5962;DHT22;3007;50.770;0.250;2023-02-04T14:35:33;10.80;99.90
5962;DHT22;3007;50.770;0.250;2023-02-04T14:38:00;10.80;99.90
5962;DHT22;3007;50.770;0.250;2023-02-04T14:40:27;10.70;99.90
5962;DHT22;3007;50.770;0.250;2023-02-04T14:42:54;10.70;99.90
5962;DHT22;3007;50.770;0.250;2023-02-04T14:45:22;10.80;99.90
5962;DHT22;3007;50.770;0.250;2023-02-04T14:47:49;10.70;99.90
5962;DHT22;3007;50.770;0.250;2023-02-04T14:50:17;10.70;99.90
5962;DHT22;3007;50.770;0.250;2023-02-04T14:52:44;10.70;99.90
5962;DHT22;3007;50.770;0.250;2023-02-04T14:55:11;10.60;99.90
5962;DHT22;3007;50.770;0.250;2023-02-04T14:57:38;10.60;99.90
5962;DHT22;3007;50.770;0.250;2023-02-04T15:00:06;10.50;99.90
5962;DHT22;3007;50.770;0.250;2023-02-04T15:02:34;10.50;99.90
5962;DHT22;3007;50.770;0.250;2023-02-04T15:05:01;10.50;99.90
5962;DHT22;3007;50.770;0.250;2023-02-04T15:07:28;10.50;99.90
5962;DHT22;3007;50.770;0.250;2023-02-04T15:09:55;10.40;99.90
5962;DHT22;3007;50.770;0.250;2023-02-04T15:12:22;10.40;99.90
5962;DHT22;3007;50.770;0.250;2023-02-04T15:14:50;10.40;99.90
5962;DHT22;3007;50.770;0.250;2023-02-04T15:17:16;10.40;99.90
5962;DHT22;3007;50.770;0.250;2023-02-04T15:19:45;10.40;99.90
5962;DHT22;3007;50.770;0.250;2023-02-04T15:22:12;10.40;99.90
5962;DHT22;3007;50.770;0.250;2023-02-04T15:24:39;10.40;99.90
5962;DHT22;3007;50.770;0.250;2023-02-04T15:27:06;10.40;99.90
5962;DHT22;3007;50.770;0.250;2023-02-04T15:29:33;10.40;99.90
5962;DHT22;3007;50.770;0.250;2023-02-04T15:32:00;10.30;99.90
5962;DHT22;3007;50.770;0.250;2023-02-04T15:34:27;10.30;99.90
5962;DHT22;3007;50.770;0.250;2023-02-04T15:36:55;10.30;99.90
5962;DHT22;3007;50.770;0.250;2023-02-04T15:39:22;10.30;99.90
5962;DHT22;3007;50.770;0.250;2023-02-04T15:41:49;10.30;99.90
5962;DHT22;3007;50.770;0.250;2023-02-04T15:44:16;10.30;99.90
5962;DHT22;3007;50.770;0.250;2023-02-04T15:46:43;10.30;99.90
5962;DHT22;3007;50.770;0.250;2023-02-04T15:49:10;10.20;99.90
5962;DHT22;3007;50.770;0.250;2023-02-04T15:51:37;10.30;99.90
5962;DHT22;3007;50.770;0.250;2023-02-04T15:54:05;10.20;99.90
5962;DHT22;3007;50.770;0.250;2023-02-04T15:56:32;10.30;99.90
5962;DHT22;3007;50.770;0.250;2023-02-04T15:58:59;10.20;99.90
5962;DHT22;3007;50.770;0.250;2023-02-04T16:01:26;10.20;99.90
5962;DHT22;3007;50.770;0.250;2023-02-04T16:03:53;10.20;99.90
5962;DHT22;3007;50.770;0.250;2023-02-04T16:06:21;10.10;99.90
5962;DHT22;3007;50.770;0.250;2023-02-04T16:08:48;10.10;99.90
5962;DHT22;3007;50.770;0.250;2023-02-04T16:11:16;10.10;99.90
5962;DHT22;3007;50.770;0.250;2023-02-04T16:13:43;10.00;99.90
5962;DHT22;3007;50.770;0.250;2023-02-04T16:16:10;10.00;99.90
5962;DHT22;3007;50.770;0.250;2023-02-04T16:18:37;10.00;99.90